createdAt,value
2023-06-24T15:33:40.066Z,2.30
2023-06-24T15:36:12.959Z,2.78
2023-06-24T15:38:48.061Z,2.10
2023-06-24T15:41:21.071Z,2.80
2023-06-24T15:43:54.077Z,2.53
2023-06-24T15:46:27.428Z,2.33
2023-06-24T15:49:01.762Z,2.40
2023-06-24T15:51:34.592Z,2.20
2023-06-24T15:54:07.746Z,2.17
2023-06-24T15:56:40.587Z,2.28
2023-06-24T15:59:13.593Z,3.05
2023-06-24T16:01:46.543Z,2.13
2023-06-24T16:04:20.865Z,2.53
2023-06-24T16:06:53.744Z,2.50
2023-06-24T16:09:26.599Z,2.40
2023-06-24T16:11:59.455Z,2.50
2023-06-24T16:14:32.285Z,2.40
2023-06-24T16:17:05.674Z,2.60
2023-06-24T16:19:40.081Z,2.83
2023-06-24T16:22:12.993Z,2.60
2023-06-24T16:24:46.014Z,2.55
2023-06-24T16:27:18.865Z,2.75
2023-06-24T16:29:51.690Z,2.65
2023-06-24T16:32:24.856Z,2.40
2023-06-24T16:34:59.190Z,2.50
2023-06-24T16:37:31.982Z,2.53
2023-06-24T16:40:05.136Z,2.80
2023-06-24T16:42:37.988Z,2.60
2023-06-24T16:45:11.397Z,2.10
2023-06-24T16:47:44.341Z,2.58
2023-06-24T16:50:18.577Z,2.85
2023-06-24T16:52:51.390Z,2.05
2023-06-24T16:55:24.385Z,2.17
2023-06-24T16:57:57.225Z,2.53
2023-06-24T17:00:30.111Z,2.53
2023-06-24T17:03:03.232Z,2.50
2023-06-24T17:05:40.866Z,2.50
2023-06-24T17:08:14.020Z,2.42
2023-06-24T17:10:46.993Z,2.47
2023-06-24T17:13:20.648Z,2.70
2023-06-24T17:15:53.552Z,2.47
2023-06-24T17:18:26.399Z,2.65
2023-06-24T17:42:28.179Z,2.53
2023-06-24T17:45:01.011Z,3.08
2023-06-24T17:47:33.875Z,2.42
2023-06-24T17:50:07.303Z,2.58
2023-06-24T17:52:40.231Z,2.35
2023-06-24T17:55:13.096Z,2.55
2023-06-24T17:57:47.347Z,2.65
2023-06-24T18:00:20.374Z,2.92
2023-06-24T18:02:53.276Z,2.63
2023-06-24T18:05:26.335Z,2.45
2023-06-24T18:07:59.993Z,3.05
2023-06-24T18:10:33.854Z,2.70
2023-06-24T18:13:08.186Z,2.78
2023-06-24T18:15:41.019Z,2.40
2023-06-24T18:18:13.829Z,2.78
2023-06-24T18:20:46.662Z,2.50
2023-06-24T18:23:19.443Z,2.42
2023-06-24T18:25:52.308Z,2.58
2023-06-24T18:28:26.469Z,2.58
2023-06-24T18:30:59.349Z,2.58
2023-06-24T18:33:32.283Z,2.85
2023-06-24T18:36:05.087Z,2.53
2023-06-24T18:38:38.196Z,2.47
2023-06-24T18:41:11.494Z,2.92
2023-06-24T18:43:45.711Z,2.38
2023-06-24T18:46:19.843Z,2.50
2023-06-24T18:48:53.094Z,2.60
2023-06-24T18:51:25.892Z,2.75
2023-06-24T18:53:58.805Z,2.88
2023-06-24T18:56:31.591Z,2.63
2023-06-24T18:59:05.796Z,2.67
2023-06-24T19:01:38.644Z,2.67
2023-06-24T19:04:11.483Z,2.85
2023-06-24T19:06:44.948Z,2.80
2023-06-24T19:09:17.813Z,2.58
2023-06-24T19:11:50.658Z,2.70
2023-06-24T19:14:24.823Z,2.60
2023-06-24T19:16:57.964Z,2.50
2023-06-24T19:19:30.894Z,2.67
2023-06-24T19:22:04.908Z,2.78
2023-06-24T19:24:39.524Z,2.80
2023-06-24T19:27:12.369Z,2.67
2023-06-24T19:29:46.708Z,2.95
2023-06-24T19:32:19.693Z,2.70
2023-06-24T19:34:52.733Z,2.60
2023-06-24T19:37:25.555Z,3.00
2023-06-24T19:39:59.169Z,3.50
2023-06-24T19:42:32.141Z,3.63
2023-06-24T19:45:08.218Z,4.15
2023-06-24T19:47:41.323Z,3.90
2023-06-24T19:50:14.388Z,4.13
2023-06-24T19:52:47.718Z,3.78
2023-06-24T19:55:20.843Z,3.75
2023-06-24T19:57:53.844Z,3.90
2023-06-24T20:00:28.119Z,3.55
2023-06-24T20:03:03.685Z,3.72
2023-06-24T20:05:36.618Z,4.22
2023-06-24T20:08:09.527Z,4.00
2023-06-24T20:10:42.435Z,4.72
2023-06-24T20:13:15.368Z,3.45
2023-06-24T20:15:49.740Z,3.33
2023-06-24T20:18:24.657Z,3.70
2023-06-24T20:20:57.554Z,3.80
2023-06-24T20:23:30.408Z,3.20
2023-06-24T20:26:03.249Z,3.83
2023-06-24T20:28:36.055Z,3.90
2023-06-24T20:31:10.665Z,3.20
2023-06-24T20:33:43.693Z,3.35
2023-06-24T20:36:17.404Z,3.63
2023-06-24T20:38:50.212Z,3.45
2023-06-24T20:41:24.542Z,3.72
2023-06-24T20:43:57.462Z,4.07
2023-06-24T20:46:31.866Z,3.80
2023-06-24T20:49:05.108Z,4.22
2023-06-24T20:51:40.434Z,3.92
2023-06-24T20:54:13.594Z,4.82
2023-06-24T20:56:46.571Z,4.18
2023-06-24T20:59:19.567Z,4.50
2023-06-24T21:01:54.168Z,4.50
2023-06-24T21:04:27.085Z,4.63
2023-06-24T21:07:00.075Z,4.97
2023-06-24T21:09:33.041Z,5.03
2023-06-24T21:12:06.906Z,5.80
2023-06-24T21:14:39.842Z,6.05
2023-06-24T21:17:14.124Z,4.30
2023-06-24T21:19:46.978Z,4.55
2023-06-24T21:22:19.951Z,5.38
2023-06-24T21:24:52.854Z,4.47
2023-06-24T21:27:25.674Z,4.93
2023-06-24T21:29:58.635Z,4.55
2023-06-24T21:32:33.494Z,6.13
2023-06-24T21:35:07.569Z,6.72
2023-06-24T21:37:40.549Z,6.15
2023-06-24T21:40:14.780Z,5.55
2023-06-24T21:42:49.686Z,4.65
2023-06-24T21:45:22.855Z,4.68
2023-06-24T21:47:57.093Z,4.28
2023-06-24T21:50:30.013Z,4.55
2023-06-24T21:53:03.010Z,4.68
2023-06-24T21:55:35.950Z,5.00
2023-06-24T21:58:08.778Z,4.85
2023-06-24T22:00:43.546Z,4.90
2023-06-24T22:03:18.258Z,4.40
2023-06-24T22:05:53.372Z,4.25
2023-06-24T22:08:26.443Z,4.47
2023-06-24T22:10:59.325Z,5.68
2023-06-24T22:13:32.285Z,5.07
2023-06-24T22:16:05.432Z,5.25
2023-06-24T22:18:39.723Z,5.30
2023-06-24T22:21:12.545Z,4.90
2023-06-24T22:23:45.390Z,4.57
2023-06-24T22:26:18.298Z,4.82
2023-06-24T22:28:51.325Z,4.95
2023-06-24T22:31:24.184Z,5.20
2023-06-24T22:33:58.381Z,4.70
2023-06-24T22:36:31.236Z,5.32
2023-06-24T22:39:04.240Z,6.63
2023-06-24T22:41:37.098Z,7.22
2023-06-24T22:44:11.480Z,7.65
2023-06-24T22:46:44.763Z,6.97
2023-06-24T22:49:19.798Z,8.85
2023-06-24T22:51:56.018Z,7.70
2023-06-24T22:54:29.732Z,6.82
2023-06-24T22:57:19.465Z,6.60
2023-06-24T22:59:53.631Z,6.70
2023-06-24T23:02:28.385Z,6.07
2023-06-24T23:05:03.593Z,5.65
2023-06-24T23:07:37.228Z,4.88
2023-06-24T23:10:10.990Z,4.95
2023-06-24T23:12:47.915Z,5.15
2023-06-24T23:15:21.058Z,5.13
2023-06-24T23:17:56.482Z,5.47
2023-06-24T23:20:31.540Z,4.97
2023-06-24T23:23:04.911Z,4.90
2023-06-24T23:25:40.836Z,5.20
2023-06-24T23:28:27.243Z,4.93
2023-06-24T23:31:05.812Z,5.13
2023-06-24T23:33:39.100Z,4.60
2023-06-24T23:36:14.998Z,5.10
2023-06-24T23:38:51.068Z,4.53
2023-06-24T23:41:29.391Z,4.38
2023-06-24T23:44:07.204Z,5.10
2023-06-24T23:46:47.211Z,5.30
2023-06-24T23:49:29.994Z,5.28
2023-06-24T23:52:06.150Z,6.07
2023-06-24T23:54:39.016Z,5.43
2023-06-24T23:57:11.868Z,5.07
2023-06-24T23:59:44.806Z,4.95
